createdAt,value
2019-03-15T00:00:08.933Z,5.94
2019-03-15T00:04:06.183Z,5.89
2019-03-15T00:09:06.952Z,5.75
2019-03-15T00:14:06.289Z,5.72
2019-03-15T00:19:06.319Z,5.62
2019-03-15T00:24:06.724Z,5.63
2019-03-15T00:29:07.120Z,5.65
2019-03-15T00:34:06.278Z,5.66
2019-03-15T00:38:07.085Z,5.47
2019-03-15T00:43:06.809Z,5.51
2019-03-15T00:48:07.342Z,5.62
2019-03-15T00:53:06.731Z,5.7
2019-03-15T00:58:07.266Z,5.72
2019-03-15T01:03:06.629Z,5.56
2019-03-15T01:08:07.135Z,5.49
2019-03-15T01:13:06.956Z,5.37
2019-03-15T01:18:06.737Z,5.62
2019-03-15T01:23:06.275Z,5.65
2019-03-15T01:28:06.631Z,5.8
2019-03-15T01:32:06.905Z,5.68
2019-03-15T01:37:07.315Z,5.75
2019-03-15T01:42:07.177Z,5.82
2019-03-15T01:47:07.245Z,5.85
2019-03-15T01:52:07.806Z,5.94
2019-03-15T01:57:07.227Z,6.06
2019-03-15T02:02:06.785Z,6.07
2019-03-15T02:07:07.806Z,6.12
2019-03-15T02:11:07.529Z,6.25
2019-03-15T02:16:07.017Z,6.14
2019-03-15T02:21:06.610Z,6.12
2019-03-15T02:26:06.772Z,6.05
2019-03-15T02:31:06.508Z,6.04
2019-03-15T02:36:06.925Z,5.97
2019-03-15T02:41:06.893Z,6.01
2019-03-15T02:45:08.625Z,6.05
2019-03-15T02:50:06.614Z,6.01
2019-03-15T02:55:07.219Z,6.05
2019-03-15T03:00:08.961Z,6.12
2019-03-15T03:05:08.351Z,6.2
2019-03-15T03:10:07.399Z,6.2
2019-03-15T03:15:08.602Z,6.2
2019-03-15T03:19:07.051Z,6.22
2019-03-15T03:24:06.645Z,6.16
2019-03-15T03:29:07.076Z,6.14
2019-03-15T03:34:07.510Z,6.16
2019-03-15T03:39:06.995Z,6.17
2019-03-15T03:44:07.010Z,6.19
2019-03-15T03:49:06.619Z,6.14
2019-03-15T03:54:06.474Z,6.3
2019-03-15T03:59:06.620Z,6.38
2019-03-15T04:04:06.520Z,6.28
2019-03-15T04:09:07.810Z,6.25
2019-03-15T04:14:07.087Z,6.24
2019-03-15T04:18:06.713Z,6.13
2019-03-15T04:23:06.776Z,6.12
2019-03-15T04:28:06.892Z,6.23
2019-03-15T04:33:07.419Z,6.24
2019-03-15T04:38:06.581Z,6.3
2019-03-15T04:43:06.861Z,6.24
2019-03-15T04:48:06.535Z,6.25
2019-03-15T04:52:07.386Z,6.28
2019-03-15T04:57:06.790Z,6.37
2019-03-15T05:02:06.756Z,6.3
2019-03-15T05:07:06.873Z,6.38
2019-03-15T05:12:07.057Z,6.35
2019-03-15T05:17:07.152Z,6.42
2019-03-15T05:22:07.128Z,6.26
2019-03-15T05:27:07.289Z,6.15
2019-03-15T05:31:06.262Z,5.98
2019-03-15T05:36:07.010Z,5.97
2019-03-15T05:41:06.325Z,5.86
2019-03-15T05:46:06.818Z,6.06
2019-03-15T05:51:07.390Z,6.25
2019-03-15T05:56:06.513Z,6.25
2019-03-15T06:01:06.343Z,6.3
2019-03-15T06:06:08.172Z,6.23
2019-03-15T06:11:07.094Z,6.35
2019-03-15T06:16:06.514Z,6.4
2019-03-15T06:21:06.641Z,6.35
2019-03-15T06:25:07.320Z,6.24
2019-03-15T06:30:07.972Z,6.27
2019-03-15T06:35:07.115Z,6.46
2019-03-15T06:40:06.963Z,6.46
2019-03-15T06:45:08.588Z,6.4
2019-03-15T06:50:06.220Z,6.42
2019-03-15T06:55:06.691Z,6.46
2019-03-15T07:00:09.094Z,6.59
2019-03-15T07:05:07.268Z,6.63
2019-03-15T07:09:07.296Z,6.72
2019-03-15T07:14:07.190Z,6.89
2019-03-15T07:19:07.382Z,7.04
2019-03-15T07:24:06.837Z,7.19
2019-03-15T07:29:07.258Z,7.45
2019-03-15T07:34:07.165Z,7.72
2019-03-15T07:39:06.601Z,7.71
2019-03-15T07:44:07.118Z,7.6
2019-03-15T07:48:07.243Z,7.69
2019-03-15T07:53:06.738Z,8.16
2019-03-15T07:58:07.456Z,9.19
2019-03-15T08:03:06.808Z,9.15
2019-03-15T08:08:06.315Z,9.35
2019-03-15T08:13:06.279Z,8.79
2019-03-15T08:18:06.495Z,8.94
2019-03-15T08:23:08.538Z,9.08
2019-03-15T08:28:06.347Z,9.64
2019-03-15T08:32:06.707Z,9.45
2019-03-15T08:37:07.096Z,9.36
2019-03-15T08:42:06.975Z,9.77
2019-03-15T08:47:07.150Z,9.83
2019-03-15T08:52:06.622Z,9.75
2019-03-15T08:57:07.158Z,9.81
2019-03-15T09:02:06.596Z,9.55
2019-03-15T09:07:07.129Z,10.26
2019-03-15T09:12:06.760Z,10.13
2019-03-15T09:16:06.889Z,9.93
2019-03-15T09:21:06.268Z,9.83
2019-03-15T09:26:07.796Z,10.67
2019-03-15T09:31:07.613Z,10.9
2019-03-15T09:36:06.263Z,10.8
2019-03-15T09:41:06.235Z,11.9
2019-03-15T09:45:09.100Z,11.04
2019-03-15T09:46:06.859Z,11.04
2019-03-15T09:50:33.153Z,10.2
2019-03-15T09:55:06.747Z,10.13
2019-03-15T10:00:08.871Z,9.74
2019-03-15T10:05:11.074Z,9.83
2019-03-15T10:10:13.180Z,9.95
2019-03-15T10:15:08.164Z,10.16
2019-03-15T10:20:06.516Z,9.91
2019-03-15T10:25:06.935Z,9.92
2019-03-15T10:30:07.985Z,9.93
2019-03-15T10:35:06.292Z,9.9
2019-03-15T10:39:07.185Z,10.08
2019-03-15T10:44:06.658Z,9.82
2019-03-15T10:49:06.727Z,10
2019-03-15T10:54:07.167Z,10
2019-03-15T10:59:06.598Z,9.94
2019-03-15T11:04:07.026Z,10.22
2019-03-15T11:09:06.712Z,9.77
2019-03-15T11:13:07.426Z,9.75
2019-03-15T11:18:07.248Z,10.16
2019-03-15T11:23:06.581Z,10.21
2019-03-15T11:28:06.903Z,9.9
2019-03-15T11:33:06.978Z,10.28
2019-03-15T11:38:07.152Z,10.4
2019-03-15T11:43:07.028Z,10.1
2019-03-15T11:48:08.869Z,9.56
2019-03-15T11:53:06.676Z,9.17
2019-03-15T11:58:06.992Z,9.12
2019-03-15T12:02:06.557Z,9.03
2019-03-15T12:07:06.505Z,9.3
2019-03-15T12:12:06.476Z,9.1
2019-03-15T12:17:06.763Z,8.9
2019-03-15T12:22:06.738Z,9.4
2019-03-15T12:27:06.152Z,9.21
2019-03-15T12:32:06.357Z,9.37
2019-03-15T12:37:06.872Z,9.04
2019-03-15T12:41:06.634Z,8.43
2019-03-15T12:46:07.057Z,8.31
2019-03-15T12:51:06.620Z,8.13
2019-03-15T12:56:07.017Z,8.27
2019-03-15T13:01:07.107Z,8.37
2019-03-15T13:06:06.499Z,8.18
2019-03-15T13:11:06.531Z,8.19
2019-03-15T13:15:08.301Z,8.14
2019-03-15T13:20:07.146Z,8.07
2019-03-15T13:25:06.782Z,7.81
2019-03-15T13:30:07.785Z,7.76
2019-03-15T13:35:06.403Z,7.76
2019-03-15T13:40:06.635Z,7.71
2019-03-15T13:45:08.002Z,7.57
2019-03-15T13:50:07.150Z,7.48
2019-03-15T13:55:06.318Z,7.57
2019-03-15T13:59:06.937Z,7.6
2019-03-15T14:04:06.397Z,7.59
2019-03-15T14:09:07.573Z,7.6
2019-03-15T14:14:06.579Z,7.57
2019-03-15T14:19:07.231Z,7.37
2019-03-15T14:24:06.248Z,7.39
2019-03-15T14:29:06.619Z,7.42
2019-03-15T14:33:06.872Z,7.49
2019-03-15T14:34:07.367Z,7.49
2019-03-15T14:38:07.142Z,7.46
2019-03-15T14:43:06.460Z,7.54
2019-03-15T14:48:07.048Z,7.81
2019-03-15T14:53:06.375Z,7.89
2019-03-15T14:58:07.228Z,8.06
2019-03-15T15:03:06.878Z,8.31
2019-03-15T15:07:07.175Z,8.85
2019-03-15T15:12:06.729Z,8.81
2019-03-15T15:17:07.187Z,8.77
2019-03-15T15:22:06.549Z,8.92
2019-03-15T15:27:07.434Z,8.98
2019-03-15T15:32:06.388Z,8.94
2019-03-15T15:37:07.133Z,9.06
2019-03-15T15:42:06.743Z,9.16
2019-03-15T15:46:06.548Z,9.16
2019-03-15T15:51:07.018Z,9.23
2019-03-15T15:56:06.397Z,9.29
2019-03-15T16:01:07.067Z,9.31
2019-03-15T16:06:06.602Z,9.24
2019-03-15T16:11:06.572Z,9.26
2019-03-15T16:15:07.950Z,9.39
2019-03-15T16:20:06.778Z,9.66
2019-03-15T16:25:06.272Z,9.59
2019-03-15T16:30:08.082Z,9.63
2019-03-15T16:35:07.184Z,9.59
2019-03-15T16:40:06.948Z,9.49
2019-03-15T16:45:09.136Z,9.44
2019-03-15T16:50:07.187Z,9.4
2019-03-15T16:55:06.882Z,9.47
2019-03-15T17:00:09.262Z,9.79
2019-03-15T17:05:06.641Z,9.6
2019-03-15T17:09:07.531Z,9.44
2019-03-15T17:14:06.838Z,9.18
2019-03-15T17:19:06.681Z,9.11
2019-03-15T17:24:06.800Z,9.16
2019-03-15T17:29:06.307Z,9.14
2019-03-15T17:34:06.676Z,9
2019-03-15T17:39:07.453Z,9.11
2019-03-15T17:43:06.534Z,9.17
2019-03-15T17:48:07.047Z,9.19
2019-03-15T17:53:07.330Z,9.06
2019-03-15T17:58:06.325Z,9
2019-03-15T18:03:19.611Z,9
2019-03-15T18:08:07.115Z,9.16
2019-03-15T18:13:06.136Z,9.04
2019-03-15T18:17:07.358Z,8.95
2019-03-15T18:22:08.384Z,8.86
2019-03-15T18:27:06.933Z,8.7
2019-03-15T18:32:06.930Z,8.77
2019-03-15T18:37:07.426Z,8.66
2019-03-15T18:42:07.351Z,8.46
2019-03-15T18:47:06.581Z,8.32
2019-03-15T18:52:07.296Z,8.09
2019-03-15T18:56:06.435Z,8.27
2019-03-15T19:01:07.363Z,7.97
2019-03-15T19:06:07.491Z,8.17
2019-03-15T19:11:06.864Z,8.09
2019-03-15T19:16:20.469Z,7.92
2019-03-15T19:21:08.439Z,7.65
2019-03-15T19:26:07.018Z,7.75
2019-03-15T19:30:08.098Z,8.11
2019-03-15T19:31:06.750Z,8.11
2019-03-15T19:35:06.776Z,8.16
2019-03-15T19:40:06.588Z,8.19
2019-03-15T19:45:08.454Z,8.42
2019-03-15T19:50:07.104Z,8.37
2019-03-15T19:55:06.569Z,8.33
2019-03-15T20:00:09.364Z,7.9
2019-03-15T20:05:06.894Z,7.89
2019-03-15T20:10:07.067Z,7.89
2019-03-15T20:14:06.896Z,7.77
2019-03-15T20:19:07.093Z,7.84
2019-03-15T20:24:06.763Z,7.81
2019-03-15T20:29:06.131Z,7.68
2019-03-15T20:34:06.631Z,7.69
2019-03-15T20:39:06.604Z,7.59
2019-03-15T20:44:07.152Z,7.65
2019-03-15T20:49:07.511Z,7.59
2019-03-15T20:53:09.644Z,7.72
2019-03-15T20:58:06.795Z,7.34
2019-03-15T21:03:07.773Z,7.45
2019-03-15T21:08:06.578Z,7.45
2019-03-15T21:13:06.766Z,7.4
2019-03-15T21:18:07.056Z,7.07
2019-03-15T21:23:07.111Z,7.24
2019-03-15T21:28:06.774Z,7.24
2019-03-15T21:33:07.453Z,6.95
2019-03-15T21:38:06.474Z,6.8
2019-03-15T21:42:06.840Z,6.9
2019-03-15T21:47:06.959Z,7.22
2019-03-15T21:52:06.682Z,7.26
2019-03-15T21:57:06.987Z,6.99
2019-03-15T22:02:07.011Z,6.75
2019-03-15T22:07:07.824Z,6.84
2019-03-15T22:12:06.959Z,6.73
2019-03-15T22:17:07.478Z,6.58
2019-03-15T22:22:06.877Z,6.46
2019-03-15T22:26:06.900Z,6.75
2019-03-15T22:31:17.331Z,6.71
2019-03-15T22:36:06.711Z,6.72
2019-03-15T22:41:07.487Z,6.44
2019-03-15T22:46:06.793Z,6.21
2019-03-15T22:51:07.190Z,6.48
2019-03-15T22:56:06.543Z,6.25
2019-03-15T23:01:07.332Z,6.28
2019-03-15T23:05:07.377Z,6.37
2019-03-15T23:10:07.167Z,6.45
2019-03-15T23:15:08.158Z,6.51
2019-03-15T23:20:06.582Z,6.23
2019-03-15T23:25:06.953Z,6.51
2019-03-15T23:30:07.533Z,6.66
2019-03-15T23:35:06.486Z,6.56
2019-03-15T23:40:06.396Z,6.38
2019-03-15T23:44:07.120Z,6.38
2019-03-15T23:49:06.495Z,6.38
2019-03-15T23:54:06.795Z,6.46
2019-03-15T23:59:07.030Z,6.3
